sensor_id;sensor_type;location;lat;lon;timestamp;pressure;altitude;pressure_sealevel;temperature;humidity
9538;BME280;4807;48.024;11.726;2023-04-21T00:00:01;94607.72;;;5.68;85.25
9538;BME280;4807;48.024;11.726;2023-04-21T00:03:14;94597.97;;;5.68;85.03
9538;BME280;4807;48.024;11.726;2023-04-21T00:06:23;94596.00;;;5.70;85.06
9538;BME280;4807;48.024;11.726;2023-04-21T00:09:32;94580.53;;;5.67;84.66
9538;BME280;4807;48.024;11.726;2023-04-21T00:12:40;94586.50;;;5.61;85.08
9538;BME280;4807;48.024;11.726;2023-04-21T00:15:49;94581.84;;;5.63;85.26
9538;BME280;4807;48.024;11.726;2023-04-21T00:18:59;94579.88;;;5.65;85.25
9538;BME280;4807;48.024;11.726;2023-04-21T00:22:08;94576.84;;;5.68;84.29
9538;BME280;4807;48.024;11.726;2023-04-21T00:25:21;94576.84;;;5.68;84.14
9538;BME280;4807;48.024;11.726;2023-04-21T00:28:29;94579.56;;;5.60;84.50
9538;BME280;4807;48.024;11.726;2023-04-21T00:31:38;94568.47;;;5.50;85.40
9538;BME280;4807;48.024;11.726;2023-04-21T00:34:47;94566.13;;;5.32;85.13
9538;BME280;4807;48.024;11.726;2023-04-21T00:37:57;94579.09;;;5.19;86.37
9538;BME280;4807;48.024;11.726;2023-04-21T00:41:05;94572.25;;;5.33;85.56
9538;BME280;4807;48.024;11.726;2023-04-21T00:44:16;94574.56;;;5.28;86.39
9538;BME280;4807;48.024;11.726;2023-04-21T00:47:25;94579.91;;;5.20;86.43
9538;BME280;4807;48.024;11.726;2023-04-21T00:50:35;94566.09;;;5.18;86.30
9538;BME280;4807;48.024;11.726;2023-04-21T00:53:46;94560.44;;;5.21;86.47
9538;BME280;4807;48.024;11.726;2023-04-21T00:56:54;94558.72;;;5.28;86.22
9538;BME280;4807;48.024;11.726;2023-04-21T01:00:06;94541.91;;;5.29;86.05
9538;BME280;4807;48.024;11.726;2023-04-21T01:03:15;94551.38;;;5.23;86.51
9538;BME280;4807;48.024;11.726;2023-04-21T01:06:27;94548.41;;;5.41;85.62
9538;BME280;4807;48.024;11.726;2023-04-21T01:09:36;94542.22;;;5.34;86.18
9538;BME280;4807;48.024;11.726;2023-04-21T01:12:46;94558.38;;;5.31;86.05
9538;BME280;4807;48.024;11.726;2023-04-21T01:15:54;94551.03;;;5.26;87.04
9538;BME280;4807;48.024;11.726;2023-04-21T01:19:02;94555.19;;;5.35;86.35
9538;BME280;4807;48.024;11.726;2023-04-21T01:22:13;94553.31;;;5.44;86.04
9538;BME280;4807;48.024;11.726;2023-04-21T01:25:22;94556.41;;;5.33;86.43
9538;BME280;4807;48.024;11.726;2023-04-21T01:28:35;94563.44;;;5.41;85.98
9538;BME280;4807;48.024;11.726;2023-04-21T01:31:43;94569.44;;;5.34;85.91
9538;BME280;4807;48.024;11.726;2023-04-21T01:34:55;94562.06;;;5.45;85.72
9538;BME280;4807;48.024;11.726;2023-04-21T01:38:05;94566.72;;;5.43;85.58
9538;BME280;4807;48.024;11.726;2023-04-21T01:41:13;94567.06;;;5.40;85.89
9538;BME280;4807;48.024;11.726;2023-04-21T01:44:21;94559.31;;;5.38;86.03
9538;BME280;4807;48.024;11.726;2023-04-21T01:47:30;94562.94;;;5.37;85.89
9538;BME280;4807;48.024;11.726;2023-04-21T01:50:39;94560.13;;;5.38;85.99
9538;BME280;4807;48.024;11.726;2023-04-21T01:53:50;94559.41;;;5.45;85.95
9538;BME280;4807;48.024;11.726;2023-04-21T01:56:59;94561.06;;;5.46;85.51
9538;BME280;4807;48.024;11.726;2023-04-21T02:00:10;94570.78;;;5.45;85.76
9538;BME280;4807;48.024;11.726;2023-04-21T02:03:21;94565.09;;;5.56;85.17
9538;BME280;4807;48.024;11.726;2023-04-21T02:06:30;94561.88;;;5.46;85.35
9538;BME280;4807;48.024;11.726;2023-04-21T02:09:39;94561.06;;;5.46;85.68
9538;BME280;4807;48.024;11.726;2023-04-21T02:12:50;94562.25;;;5.43;86.13
9538;BME280;4807;48.024;11.726;2023-04-21T02:15:58;94565.53;;;5.45;85.45
9538;BME280;4807;48.024;11.726;2023-04-21T02:19:19;94563.25;;;5.42;85.57
9538;BME280;4807;48.024;11.726;2023-04-21T02:22:28;94555.69;;;5.39;86.06
9538;BME280;4807;48.024;11.726;2023-04-21T02:25:37;94538.84;;;5.40;86.00
9538;BME280;4807;48.024;11.726;2023-04-21T02:28:46;94539.50;;;5.42;85.68
9538;BME280;4807;48.024;11.726;2023-04-21T02:31:55;94541.50;;;5.40;85.84
9538;BME280;4807;48.024;11.726;2023-04-21T02:35:20;94531.91;;;5.39;85.74
9538;BME280;4807;48.024;11.726;2023-04-21T02:38:29;94537.03;;;5.41;86.24
9538;BME280;4807;48.024;11.726;2023-04-21T02:41:39;94540.31;;;5.43;86.27
9538;BME280;4807;48.024;11.726;2023-04-21T02:44:47;94539.50;;;5.42;86.07
9538;BME280;4807;48.024;11.726;2023-04-21T02:47:55;94541.13;;;5.43;85.45
9538;BME280;4807;48.024;11.726;2023-04-21T02:51:10;94546.59;;;5.42;85.55
9538;BME280;4807;48.024;11.726;2023-04-21T02:54:18;94540.16;;;5.21;86.12
9538;BME280;4807;48.024;11.726;2023-04-21T02:57:31;94536.00;;;5.27;85.58
9538;BME280;4807;48.024;11.726;2023-04-21T03:00:43;94541.63;;;5.24;85.71
9538;BME280;4807;48.024;11.726;2023-04-21T03:03:52;94539.50;;;5.19;85.86
9538;BME280;4807;48.024;11.726;2023-04-21T03:07:00;94541.16;;;5.20;86.21
9538;BME280;4807;48.024;11.726;2023-04-21T03:10:08;94540.00;;;5.23;85.93
9538;BME280;4807;48.024;11.726;2023-04-21T03:13:18;94548.56;;;5.25;85.75
9538;BME280;4807;48.024;11.726;2023-04-21T03:16:29;94552.19;;;5.24;85.60
9538;BME280;4807;48.024;11.726;2023-04-21T03:19:37;94547.72;;;5.24;85.05
9538;BME280;4807;48.024;11.726;2023-04-21T03:22:46;94542.69;;;5.15;85.81
9538;BME280;4807;48.024;11.726;2023-04-21T03:25:54;94544.16;;;5.17;85.95
9538;BME280;4807;48.024;11.726;2023-04-21T03:29:04;94542.34;;;5.18;85.80
9538;BME280;4807;48.024;11.726;2023-04-21T03:32:12;94538.41;;;5.14;86.12
9538;BME280;4807;48.024;11.726;2023-04-21T03:35:21;94526.69;;;5.16;85.77
9538;BME280;4807;48.024;11.726;2023-04-21T03:38:29;94531.41;;;5.21;85.80
9538;BME280;4807;48.024;11.726;2023-04-21T03:41:37;94535.06;;;5.20;86.37
9538;BME280;4807;48.024;11.726;2023-04-21T03:44:47;94535.06;;;5.20;86.51
9538;BME280;4807;48.024;11.726;2023-04-21T03:47:55;94532.34;;;5.28;85.40
9538;BME280;4807;48.024;11.726;2023-04-21T03:51:04;94525.06;;;5.30;85.10
9538;BME280;4807;48.024;11.726;2023-04-21T03:54:12;94531.41;;;5.21;85.63
9538;BME280;4807;48.024;11.726;2023-04-21T03:57:20;94535.69;;;5.22;85.62
9538;BME280;4807;48.024;11.726;2023-04-21T04:00:29;94533.59;;;5.17;85.53
9538;BME280;4807;48.024;11.726;2023-04-21T04:03:37;94542.78;;;5.21;85.31
9538;BME280;4807;48.024;11.726;2023-04-21T04:06:46;94531.50;;;5.13;85.14
9538;BME280;4807;48.024;11.726;2023-04-21T04:09:54;94524.06;;;5.16;85.99
9538;BME280;4807;48.024;11.726;2023-04-21T04:13:02;94517.41;;;5.20;85.80
9538;BME280;4807;48.024;11.726;2023-04-21T04:16:12;94529.16;;;5.18;85.56
9538;BME280;4807;48.024;11.726;2023-04-21T04:19:21;94532.13;;;5.15;85.93
9538;BME280;4807;48.024;11.726;2023-04-21T04:22:29;94534.50;;;5.10;85.99
9538;BME280;4807;48.024;11.726;2023-04-21T04:25:37;94538.41;;;5.14;85.69
9538;BME280;4807;48.024;11.726;2023-04-21T04:28:45;94531.50;;;5.13;85.69
9538;BME280;4807;48.024;11.726;2023-04-21T04:31:55;94532.84;;;5.09;85.68
9538;BME280;4807;48.024;11.726;2023-04-21T04:35:08;94532.13;;;5.15;85.41
9538;BME280;4807;48.024;11.726;2023-04-21T04:38:16;94534.13;;;5.13;85.96
9538;BME280;4807;48.024;11.726;2023-04-21T04:41:25;94533.44;;;5.19;84.96
9538;BME280;4807;48.024;11.726;2023-04-21T04:44:33;94544.00;;;5.19;85.50
9538;BME280;4807;48.024;11.726;2023-04-21T04:47:42;94538.34;;;5.22;85.35
9538;BME280;4807;48.024;11.726;2023-04-21T04:50:51;94535.81;;;5.28;85.44
9538;BME280;4807;48.024;11.726;2023-04-21T04:53:59;94542.91;;;5.28;85.28
9538;BME280;4807;48.024;11.726;2023-04-21T04:57:09;94548.50;;;5.48;84.29
9538;BME280;4807;48.024;11.726;2023-04-21T05:00:18;94553.06;;;5.54;84.26
9538;BME280;4807;48.024;11.726;2023-04-21T05:03:29;94555.06;;;5.52;84.63
9538;BME280;4807;48.024;11.726;2023-04-21T05:06:37;94559.41;;;5.45;85.04
9538;BME280;4807;48.024;11.726;2023-04-21T05:09:46;94560.91;;;5.62;83.76
9538;BME280;4807;48.024;11.726;2023-04-21T05:12:54;94561.72;;;5.62;84.18
9538;BME280;4807;48.024;11.726;2023-04-21T05:16:03;94560.47;;;5.73;84.62
9538;BME280;4807;48.024;11.726;2023-04-21T05:19:12;94568.31;;;5.81;84.47
9538;BME280;4807;48.024;11.726;2023-04-21T05:22:25;94568.34;;;5.96;84.22
9538;BME280;4807;48.024;11.726;2023-04-21T05:28:41;94579.91;;;6.39;83.28
9538;BME280;4807;48.024;11.726;2023-04-21T05:31:50;94578.41;;;6.66;82.83
9538;BME280;4807;48.024;11.726;2023-04-21T05:34:59;94576.81;;;6.86;81.34
9538;BME280;4807;48.024;11.726;2023-04-21T05:38:08;94581.38;;;7.13;80.18
9538;BME280;4807;48.024;11.726;2023-04-21T05:41:16;94573.28;;;7.43;79.08
9538;BME280;4807;48.024;11.726;2023-04-21T05:44:24;94577.66;;;7.78;78.04
9538;BME280;4807;48.024;11.726;2023-04-21T05:47:33;94574.09;;;7.92;76.92
9538;BME280;4807;48.024;11.726;2023-04-21T05:50:42;94572.72;;;8.31;75.77
9538;BME280;4807;48.024;11.726;2023-04-21T05:53:50;94571.59;;;8.53;74.42
9538;BME280;4807;48.024;11.726;2023-04-21T05:57:01;94567.75;;;8.62;73.92
9538;BME280;4807;48.024;11.726;2023-04-21T06:00:11;94554.16;;;8.85;72.92
9538;BME280;4807;48.024;11.726;2023-04-21T06:03:19;94548.91;;;9.05;73.26
9538;BME280;4807;48.024;11.726;2023-04-21T06:06:29;94549.38;;;9.68;72.03
9538;BME280;4807;48.024;11.726;2023-04-21T06:09:38;94559.28;;;10.58;69.10
9538;BME280;4807;48.024;11.726;2023-04-21T06:12:47;94554.75;;;11.09;65.34
9538;BME280;4807;48.024;11.726;2023-04-21T06:15:55;94551.75;;;11.31;64.73
9538;BME280;4807;48.024;11.726;2023-04-21T06:19:03;94544.53;;;12.37;62.24
9538;BME280;4807;48.024;11.726;2023-04-21T06:22:13;94540.28;;;12.66;59.75
9538;BME280;4807;48.024;11.726;2023-04-21T06:25:21;94538.38;;;13.51;57.96
9538;BME280;4807;48.024;11.726;2023-04-21T06:28:30;94540.66;;;14.36;55.22
9538;BME280;4807;48.024;11.726;2023-04-21T06:31:38;94538.56;;;14.61;52.88
9538;BME280;4807;48.024;11.726;2023-04-21T06:34:46;94534.25;;;14.72;51.98
9538;BME280;4807;48.024;11.726;2023-04-21T06:37:56;94543.75;;;15.31;50.50
9538;BME280;4807;48.024;11.726;2023-04-21T06:41:05;94536.94;;;15.00;51.79
9538;BME280;4807;48.024;11.726;2023-04-21T06:44:13;94539.72;;;13.95;53.78
9538;BME280;4807;48.024;11.726;2023-04-21T06:47:21;94536.81;;;14.20;54.20
9538;BME280;4807;48.024;11.726;2023-04-21T06:50:30;94533.19;;;14.61;54.03
9538;BME280;4807;48.024;11.726;2023-04-21T06:53:39;94536.41;;;14.86;52.14
9538;BME280;4807;48.024;11.726;2023-04-21T06:56:47;94539.03;;;14.58;52.90
9538;BME280;4807;48.024;11.726;2023-04-21T06:59:57;94534.34;;;15.45;50.51
9538;BME280;4807;48.024;11.726;2023-04-21T07:03:06;94537.06;;;14.65;51.17
9538;BME280;4807;48.024;11.726;2023-04-21T07:06:14;94538.25;;;13.58;55.39
9538;BME280;4807;48.024;11.726;2023-04-21T07:09:23;94535.09;;;12.53;57.70
9538;BME280;4807;48.024;11.726;2023-04-21T07:12:34;94537.09;;;12.57;59.17
9538;BME280;4807;48.024;11.726;2023-04-21T07:15:42;94530.63;;;12.10;59.34
9538;BME280;4807;48.024;11.726;2023-04-21T07:18:50;94526.56;;;12.26;59.67
9538;BME280;4807;48.024;11.726;2023-04-21T07:22:01;94533.00;;;11.75;60.72
9538;BME280;4807;48.024;11.726;2023-04-21T07:25:10;94525.72;;;12.07;61.31
9538;BME280;4807;48.024;11.726;2023-04-21T07:28:19;94536.44;;;12.01;61.61
9538;BME280;4807;48.024;11.726;2023-04-21T07:31:27;94524.06;;;12.31;59.48
9538;BME280;4807;48.024;11.726;2023-04-21T07:34:35;94524.75;;;12.93;58.32
9538;BME280;4807;48.024;11.726;2023-04-21T07:37:43;94522.44;;;13.45;58.09
9538;BME280;4807;48.024;11.726;2023-04-21T07:40:53;94530.19;;;14.46;54.55
9538;BME280;4807;48.024;11.726;2023-04-21T07:44:01;94537.19;;;13.17;55.92
9538;BME280;4807;48.024;11.726;2023-04-21T07:47:09;94529.69;;;12.78;58.16
9538;BME280;4807;48.024;11.726;2023-04-21T07:50:17;94533.06;;;12.85;57.63
9538;BME280;4807;48.024;11.726;2023-04-21T07:53:26;94534.22;;;13.67;57.18
9538;BME280;4807;48.024;11.726;2023-04-21T07:56:35;94533.22;;;15.01;53.69
9538;BME280;4807;48.024;11.726;2023-04-21T07:59:43;94538.03;;;14.87;52.37
9538;BME280;4807;48.024;11.726;2023-04-21T08:02:52;94534.13;;;15.35;52.32
9538;BME280;4807;48.024;11.726;2023-04-21T08:06:01;94527.06;;;14.26;52.64
9538;BME280;4807;48.024;11.726;2023-04-21T08:09:11;94539.69;;;15.45;50.61
9538;BME280;4807;48.024;11.726;2023-04-21T08:12:21;94531.16;;;16.10;49.77
9538;BME280;4807;48.024;11.726;2023-04-21T08:15:29;94536.38;;;15.26;52.81
9538;BME280;4807;48.024;11.726;2023-04-21T08:18:38;94542.19;;;14.32;53.07
9538;BME280;4807;48.024;11.726;2023-04-21T08:21:46;94547.81;;;14.94;53.62
9538;BME280;4807;48.024;11.726;2023-04-21T08:24:54;94543.44;;;15.73;50.67
9538;BME280;4807;48.024;11.726;2023-04-21T08:28:04;94535.28;;;15.68;50.32
9538;BME280;4807;48.024;11.726;2023-04-21T08:31:12;94543.84;;;15.24;51.78
9538;BME280;4807;48.024;11.726;2023-04-21T08:34:21;94543.19;;;15.91;51.28
9538;BME280;4807;48.024;11.726;2023-04-21T08:37:34;94528.47;;;16.82;48.49
9538;BME280;4807;48.024;11.726;2023-04-21T08:40:43;94544.09;;;16.85;47.62
9538;BME280;4807;48.024;11.726;2023-04-21T08:43:52;94544.75;;;16.37;48.73
9538;BME280;4807;48.024;11.726;2023-04-21T08:47:03;94548.06;;;15.32;50.30
9538;BME280;4807;48.024;11.726;2023-04-21T08:50:12;94553.84;;;15.01;51.50
9538;BME280;4807;48.024;11.726;2023-04-21T08:53:21;94545.34;;;14.92;51.82
9538;BME280;4807;48.024;11.726;2023-04-21T08:56:30;94542.31;;;14.25;53.58
9538;BME280;4807;48.024;11.726;2023-04-21T08:59:40;94532.00;;;13.87;55.66
9538;BME280;4807;48.024;11.726;2023-04-21T09:02:56;94536.69;;;14.03;55.91
9538;BME280;4807;48.024;11.726;2023-04-21T09:06:08;94541.00;;;14.16;55.23
9538;BME280;4807;48.024;11.726;2023-04-21T09:09:19;94534.72;;;14.34;56.84
9538;BME280;4807;48.024;11.726;2023-04-21T09:12:29;94538.47;;;14.44;54.34
9538;BME280;4807;48.024;11.726;2023-04-21T09:15:43;94536.66;;;15.53;51.49
9538;BME280;4807;48.024;11.726;2023-04-21T09:18:52;94529.22;;;15.72;52.63
9538;BME280;4807;48.024;11.726;2023-04-21T09:22:00;94534.13;;;14.67;53.11
9538;BME280;4807;48.024;11.726;2023-04-21T09:25:08;94529.72;;;15.01;53.61
9538;BME280;4807;48.024;11.726;2023-04-21T09:28:16;94527.41;;;14.41;55.97
9538;BME280;4807;48.024;11.726;2023-04-21T09:31:26;94527.47;;;14.69;54.60
9538;BME280;4807;48.024;11.726;2023-04-21T09:34:40;94525.06;;;14.09;55.70
9538;BME280;4807;48.024;11.726;2023-04-21T09:37:49;94518.41;;;14.35;55.61
9538;BME280;4807;48.024;11.726;2023-04-21T09:40:58;94520.28;;;14.11;56.79
9538;BME280;4807;48.024;11.726;2023-04-21T09:44:07;94516.53;;;14.36;56.21
9538;BME280;4807;48.024;11.726;2023-04-21T09:47:18;94513.72;;;14.77;55.45
9538;BME280;4807;48.024;11.726;2023-04-21T09:50:28;94518.31;;;15.79;53.15
9538;BME280;4807;48.024;11.726;2023-04-21T09:53:41;94514.03;;;16.33;51.57
9538;BME280;4807;48.024;11.726;2023-04-21T09:56:52;94518.06;;;16.69;49.92
9538;BME280;4807;48.024;11.726;2023-04-21T10:00:06;94513.47;;;16.86;50.45
9538;BME280;4807;48.024;11.726;2023-04-21T10:03:18;94509.06;;;16.80;51.10
9538;BME280;4807;48.024;11.726;2023-04-21T10:06:29;94505.22;;;17.20;51.09
9538;BME280;4807;48.024;11.726;2023-04-21T10:09:44;94509.00;;;17.45;49.88
9538;BME280;4807;48.024;11.726;2023-04-21T10:12:53;94492.75;;;17.08;50.01
9538;BME280;4807;48.024;11.726;2023-04-21T10:16:03;94498.19;;;16.92;50.98
9538;BME280;4807;48.024;11.726;2023-04-21T10:19:25;94498.06;;;16.05;51.23
9538;BME280;4807;48.024;11.726;2023-04-21T10:22:34;94497.06;;;16.11;54.36
9538;BME280;4807;48.024;11.726;2023-04-21T10:25:48;94496.19;;;15.88;53.15
9538;BME280;4807;48.024;11.726;2023-04-21T10:28:57;94486.59;;;15.76;54.92
9538;BME280;4807;48.024;11.726;2023-04-21T10:32:06;94487.41;;;15.76;55.37
9538;BME280;4807;48.024;11.726;2023-04-21T10:35:21;94486.28;;;15.72;55.44
9538;BME280;4807;48.024;11.726;2023-04-21T10:38:34;94486.41;;;15.99;54.13
9538;BME280;4807;48.024;11.726;2023-04-21T10:41:42;94479.50;;;15.24;55.12
9538;BME280;4807;48.024;11.726;2023-04-21T10:45:11;94477.56;;;15.37;54.88
9538;BME280;4807;48.024;11.726;2023-04-21T10:48:21;94479.88;;;15.45;55.26
9538;BME280;4807;48.024;11.726;2023-04-21T10:51:31;94472.28;;;15.87;54.31
9538;BME280;4807;48.024;11.726;2023-04-21T10:54:42;94484.00;;;15.81;54.01
9538;BME280;4807;48.024;11.726;2023-04-21T10:57:52;94479.56;;;16.08;54.72
9538;BME280;4807;48.024;11.726;2023-04-21T11:01:01;94476.16;;;16.13;53.69
9538;BME280;4807;48.024;11.726;2023-04-21T11:04:13;94465.41;;;16.13;53.38
9538;BME280;4807;48.024;11.726;2023-04-21T11:07:24;94474.44;;;16.62;53.19
9538;BME280;4807;48.024;11.726;2023-04-21T11:10:46;94465.81;;;16.82;55.18
9538;BME280;4807;48.024;11.726;2023-04-21T11:13:58;94473.72;;;17.15;52.22
9538;BME280;4807;48.024;11.726;2023-04-21T11:17:12;94463.50;;;17.44;54.70
9538;BME280;4807;48.024;11.726;2023-04-21T11:20:21;94464.16;;;17.29;51.09
9538;BME280;4807;48.024;11.726;2023-04-21T11:23:30;94453.66;;;16.79;51.52
9538;BME280;4807;48.024;11.726;2023-04-21T11:26:38;94458.97;;;16.52;52.15
9538;BME280;4807;48.024;11.726;2023-04-21T11:29:49;94460.66;;;16.36;51.99
9538;BME280;4807;48.024;11.726;2023-04-21T11:32:58;94463.16;;;16.05;53.60
9538;BME280;4807;48.024;11.726;2023-04-21T11:36:07;94457.03;;;16.09;52.65
9538;BME280;4807;48.024;11.726;2023-04-21T11:39:18;94452.41;;;16.05;54.47
9538;BME280;4807;48.024;11.726;2023-04-21T11:42:29;94444.22;;;16.16;54.68
9538;BME280;4807;48.024;11.726;2023-04-21T11:45:40;94439.69;;;16.17;54.35
9538;BME280;4807;48.024;11.726;2023-04-21T11:48:58;94438.19;;;16.48;55.13
9538;BME280;4807;48.024;11.726;2023-04-21T11:52:06;94437.34;;;16.64;55.23
9538;BME280;4807;48.024;11.726;2023-04-21T11:55:17;94426.28;;;16.82;55.68
9538;BME280;4807;48.024;11.726;2023-04-21T11:58:26;94431.34;;;16.35;54.37
9538;BME280;4807;48.024;11.726;2023-04-21T12:01:42;94432.91;;;16.14;57.08
9538;BME280;4807;48.024;11.726;2023-04-21T12:04:59;94441.31;;;16.39;55.23
9538;BME280;4807;48.024;11.726;2023-04-21T12:08:14;94440.00;;;16.20;53.98
9538;BME280;4807;48.024;11.726;2023-04-21T12:11:25;94445.69;;;16.24;54.70
9538;BME280;4807;48.024;11.726;2023-04-21T12:14:34;94445.91;;;16.22;53.27
9538;BME280;4807;48.024;11.726;2023-04-21T12:17:43;94444.47;;;16.15;53.13
9538;BME280;4807;48.024;11.726;2023-04-21T12:20:52;94443.03;;;16.07;51.88
9538;BME280;4807;48.024;11.726;2023-04-21T12:24:00;94441.50;;;16.11;51.71
9538;BME280;4807;48.024;11.726;2023-04-21T12:27:12;94449.31;;;15.96;50.33
9538;BME280;4807;48.024;11.726;2023-04-21T12:30:20;94448.81;;;15.99;52.08
9538;BME280;4807;48.024;11.726;2023-04-21T12:33:28;94454.34;;;16.09;50.74
9538;BME280;4807;48.024;11.726;2023-04-21T12:36:37;94450.19;;;16.18;50.65
9538;BME280;4807;48.024;11.726;2023-04-21T12:39:45;94446.06;;;16.32;51.50
9538;BME280;4807;48.024;11.726;2023-04-21T12:42:55;94447.84;;;16.44;51.53
9538;BME280;4807;48.024;11.726;2023-04-21T12:46:03;94443.53;;;16.42;50.98
9538;BME280;4807;48.024;11.726;2023-04-21T12:49:12;94437.97;;;16.49;51.19
9538;BME280;4807;48.024;11.726;2023-04-21T12:52:21;94427.13;;;16.61;51.23
9538;BME280;4807;48.024;11.726;2023-04-21T12:55:29;94429.53;;;16.84;51.48
9538;BME280;4807;48.024;11.726;2023-04-21T12:58:39;94428.22;;;16.87;51.15
9538;BME280;4807;48.024;11.726;2023-04-21T13:01:49;94431.84;;;16.97;49.24
9538;BME280;4807;48.024;11.726;2023-04-21T13:04:58;94429.13;;;16.97;49.00
9538;BME280;4807;48.024;11.726;2023-04-21T13:08:06;94429.13;;;16.97;49.45
9538;BME280;4807;48.024;11.726;2023-04-21T13:11:14;94417.47;;;17.13;50.73
9538;BME280;4807;48.024;11.726;2023-04-21T13:14:24;94418.66;;;17.23;49.22
9538;BME280;4807;48.024;11.726;2023-04-21T13:17:33;94422.16;;;17.23;48.19
9538;BME280;4807;48.024;11.726;2023-04-21T13:20:41;94412.78;;;17.31;49.47
9538;BME280;4807;48.024;11.726;2023-04-21T13:23:49;94407.19;;;17.37;48.83
9538;BME280;4807;48.024;11.726;2023-04-21T13:26:58;94410.13;;;17.36;49.15
9538;BME280;4807;48.024;11.726;2023-04-21T13:30:11;94416.34;;;17.36;50.31
9538;BME280;4807;48.024;11.726;2023-04-21T13:33:21;94410.81;;;17.48;49.69
9538;BME280;4807;48.024;11.726;2023-04-21T13:36:29;94406.00;;;17.55;49.42
9538;BME280;4807;48.024;11.726;2023-04-21T13:39:38;94410.56;;;17.49;48.09
9538;BME280;4807;48.024;11.726;2023-04-21T13:42:47;94404.50;;;17.64;48.37
9538;BME280;4807;48.024;11.726;2023-04-21T13:45:56;94395.47;;;17.80;47.99
9538;BME280;4807;48.024;11.726;2023-04-21T13:49:05;94392.78;;;17.80;46.11
9538;BME280;4807;48.024;11.726;2023-04-21T13:52:14;94397.56;;;17.73;45.37
9538;BME280;4807;48.024;11.726;2023-04-21T13:55:22;94378.66;;;17.63;46.49
9538;BME280;4807;48.024;11.726;2023-04-21T13:58:30;94381.44;;;17.78;46.44
9538;BME280;4807;48.024;11.726;2023-04-21T14:01:40;94372.66;;;17.93;46.79
9538;BME280;4807;48.024;11.726;2023-04-21T14:04:48;94376.53;;;18.07;46.56
9538;BME280;4807;48.024;11.726;2023-04-21T14:07:57;94381.38;;;18.10;45.46
9538;BME280;4807;48.024;11.726;2023-04-21T14:11:05;94384.94;;;18.21;45.15
9538;BME280;4807;48.024;11.726;2023-04-21T14:14:14;94370.41;;;18.22;44.37
9538;BME280;4807;48.024;11.726;2023-04-21T14:17:39;94374.72;;;18.28;43.30
9538;BME280;4807;48.024;11.726;2023-04-21T14:20:47;94376.88;;;18.26;43.45
9538;BME280;4807;48.024;11.726;2023-04-21T14:23:55;94360.69;;;18.21;42.01
9538;BME280;4807;48.024;11.726;2023-04-21T14:27:04;94360.44;;;18.22;43.61
9538;BME280;4807;48.024;11.726;2023-04-21T14:30:13;94353.41;;;18.21;42.99
9538;BME280;4807;48.024;11.726;2023-04-21T14:33:23;94345.59;;;18.20;42.32
9538;BME280;4807;48.024;11.726;2023-04-21T14:36:31;94343.78;;;18.36;43.03
9538;BME280;4807;48.024;11.726;2023-04-21T14:39:39;94346.78;;;18.44;44.75
9538;BME280;4807;48.024;11.726;2023-04-21T14:42:48;94335.44;;;18.42;42.60
9538;BME280;4807;48.024;11.726;2023-04-21T14:45:56;94319.00;;;18.44;43.66
9538;BME280;4807;48.024;11.726;2023-04-21T14:49:05;94331.16;;;18.51;43.39
9538;BME280;4807;48.024;11.726;2023-04-21T14:52:14;94330.41;;;18.61;43.31
9538;BME280;4807;48.024;11.726;2023-04-21T14:55:22;94330.41;;;18.61;42.09
9538;BME280;4807;48.024;11.726;2023-04-21T14:58:30;94333.59;;;18.53;42.57
9538;BME280;4807;48.024;11.726;2023-04-21T15:01:39;94325.84;;;18.61;42.90
9538;BME280;4807;48.024;11.726;2023-04-21T15:04:49;94321.25;;;18.62;41.66
9538;BME280;4807;48.024;11.726;2023-04-21T15:07:57;94327.13;;;18.54;42.68
9538;BME280;4807;48.024;11.726;2023-04-21T15:11:05;94337.88;;;18.49;42.35
9538;BME280;4807;48.024;11.726;2023-04-21T15:14:14;94332.75;;;18.42;41.39
9538;BME280;4807;48.024;11.726;2023-04-21T15:17:22;94335.47;;;18.47;42.63
9538;BME280;4807;48.024;11.726;2023-04-21T15:20:33;94338.50;;;18.61;43.13
9538;BME280;4807;48.024;11.726;2023-04-21T15:23:51;94334.78;;;18.72;42.45
9538;BME280;4807;48.024;11.726;2023-04-21T15:26:59;94339.63;;;18.70;41.81
9538;BME280;4807;48.024;11.726;2023-04-21T15:30:09;94337.22;;;18.79;41.78
9538;BME280;4807;48.024;11.726;2023-04-21T15:33:18;94340.16;;;18.82;40.28
9538;BME280;4807;48.024;11.726;2023-04-21T15:36:28;94331.03;;;19.09;41.63
9538;BME280;4807;48.024;11.726;2023-04-21T15:39:37;94334.56;;;19.24;41.77
9538;BME280;4807;48.024;11.726;2023-04-21T15:42:46;94323.50;;;19.31;41.24
9538;BME280;4807;48.024;11.726;2023-04-21T15:45:54;94330.50;;;19.32;40.10
9538;BME280;4807;48.024;11.726;2023-04-21T15:49:03;94333.50;;;19.35;40.53
9538;BME280;4807;48.024;11.726;2023-04-21T15:52:13;94316.75;;;19.28;40.23
9538;BME280;4807;48.024;11.726;2023-04-21T15:55:22;94324.28;;;19.01;41.16
9538;BME280;4807;48.024;11.726;2023-04-21T15:58:30;94315.34;;;18.75;41.38
9538;BME280;4807;48.024;11.726;2023-04-21T16:01:39;94317.50;;;18.63;42.23
9538;BME280;4807;48.024;11.726;2023-04-21T16:04:48;94316.06;;;18.45;43.31
9538;BME280;4807;48.024;11.726;2023-04-21T16:07:59;94311.19;;;18.37;42.51
9538;BME280;4807;48.024;11.726;2023-04-21T16:11:08;94309.75;;;18.24;41.57
9538;BME280;4807;48.024;11.726;2023-04-21T16:14:17;94315.44;;;18.23;42.51
9538;BME280;4807;48.024;11.726;2023-04-21T16:17:26;94310.06;;;18.23;42.21
9538;BME280;4807;48.024;11.726;2023-04-21T16:20:36;94307.88;;;18.20;41.97
9538;BME280;4807;48.024;11.726;2023-04-21T16:23:46;94302.97;;;18.07;42.15
9538;BME280;4807;48.024;11.726;2023-04-21T16:26:55;94299.97;;;17.98;42.75
9538;BME280;4807;48.024;11.726;2023-04-21T16:30:05;94294.03;;;18.01;43.31
9538;BME280;4807;48.024;11.726;2023-04-21T16:33:14;94294.03;;;17.91;44.09
9538;BME280;4807;48.024;11.726;2023-04-21T16:36:23;94293.78;;;17.98;44.21
9538;BME280;4807;48.024;11.726;2023-04-21T16:39:33;94286.44;;;17.88;44.25
9538;BME280;4807;48.024;11.726;2023-04-21T16:42:41;94283.75;;;17.88;44.68
9538;BME280;4807;48.024;11.726;2023-04-21T16:45:50;94280.44;;;17.76;44.70
9538;BME280;4807;48.024;11.726;2023-04-21T16:48:58;94284.75;;;17.72;44.96
9538;BME280;4807;48.024;11.726;2023-04-21T16:52:07;94279.09;;;17.73;45.04
9538;BME280;4807;48.024;11.726;2023-04-21T16:55:19;94290.56;;;17.59;45.58
9538;BME280;4807;48.024;11.726;2023-04-21T16:58:28;94290.53;;;17.53;45.75
9538;BME280;4807;48.024;11.726;2023-04-21T17:01:36;94294.25;;;17.42;45.98
9538;BME280;4807;48.024;11.726;2023-04-21T17:04:45;94295.44;;;17.25;47.04